createdAt,value
2019-03-13T00:02:20.451Z,1.50
2019-03-13T00:04:51.263Z,1.30
2019-03-13T00:07:21.764Z,1.73
2019-03-13T00:09:52.280Z,1.47
2019-03-13T00:12:22.875Z,1.73
2019-03-13T00:14:53.532Z,1.50
2019-03-13T00:17:24.118Z,1.83
2019-03-13T00:19:54.702Z,1.33
2019-03-13T00:22:25.181Z,1.40
2019-03-13T00:24:56.424Z,1.20
2019-03-13T00:27:26.984Z,1.30
2019-03-13T00:29:57.543Z,1.00
2019-03-13T00:32:28.137Z,0.80
2019-03-13T00:34:58.582Z,0.60
2019-03-13T00:37:29.489Z,0.60
2019-03-13T00:40:00.005Z,0.53
2019-03-13T00:42:30.529Z,0.40
2019-03-13T00:45:01.007Z,0.40
2019-03-13T00:47:32.905Z,0.50
2019-03-13T00:50:03.493Z,0.37
2019-03-13T00:52:34.102Z,0.30
2019-03-13T00:55:04.672Z,0.37
2019-03-13T00:57:35.249Z,0.40
2019-03-13T01:00:06.185Z,0.40
2019-03-13T01:02:39.265Z,0.40
2019-03-13T01:05:23.815Z,0.40
2019-03-13T01:07:54.272Z,0.30
2019-03-13T01:10:26.059Z,0.23
2019-03-13T01:12:57.474Z,0.30
2019-03-13T01:15:30.145Z,0.30
2019-03-13T01:18:00.825Z,0.30
2019-03-13T01:20:31.577Z,0.30
2019-03-13T01:23:02.131Z,0.30
2019-03-13T01:25:32.944Z,0.30
2019-03-13T01:28:03.420Z,0.40
2019-03-13T01:30:43.266Z,0.20
2019-03-13T01:33:15.858Z,0.30
2019-03-13T01:35:50.412Z,0.30
2019-03-13T01:38:21.895Z,0.30
2019-03-13T01:40:52.511Z,0.20
2019-03-13T01:43:22.995Z,0.30
2019-03-13T01:45:54.575Z,0.30
2019-03-13T01:48:25.491Z,0.30
2019-03-13T01:50:55.960Z,0.30
2019-03-13T01:53:26.520Z,0.30
2019-03-13T01:55:57.017Z,0.27
2019-03-13T01:58:27.749Z,0.30
2019-03-13T02:00:58.280Z,0.30
2019-03-13T02:03:28.780Z,0.40
2019-03-13T02:05:59.580Z,0.30
2019-03-13T02:08:30.119Z,0.20
2019-03-13T02:11:00.697Z,0.30
2019-03-13T02:13:31.179Z,0.20
2019-03-13T02:16:02.708Z,0.30
2019-03-13T02:18:33.287Z,0.30
2019-03-13T02:21:03.839Z,0.27
2019-03-13T02:23:34.491Z,0.20
2019-03-13T02:26:05.032Z,0.30
2019-03-13T02:28:35.575Z,0.30
2019-03-13T02:31:06.142Z,0.20
2019-03-13T02:33:36.701Z,0.20
2019-03-13T02:36:07.159Z,0.30
2019-03-13T02:38:37.864Z,0.20
2019-03-13T02:41:08.344Z,0.20
2019-03-13T02:43:39.005Z,0.30
2019-03-13T02:46:09.484Z,0.30
2019-03-13T02:48:40.312Z,0.20
2019-03-13T02:51:11.141Z,0.30
2019-03-13T02:53:41.630Z,0.20
2019-03-13T02:56:12.452Z,0.20
2019-03-13T02:58:43.322Z,0.27
2019-03-13T03:01:34.975Z,0.20
2019-03-13T03:04:08.005Z,0.30
2019-03-13T03:06:38.460Z,0.30
2019-03-13T03:09:09.278Z,0.20
2019-03-13T03:11:41.449Z,0.30
2019-03-13T03:14:12.053Z,0.30
2019-03-13T03:16:43.020Z,0.30
2019-03-13T03:19:13.542Z,0.40
2019-03-13T03:21:44.004Z,0.20
2019-03-13T03:24:14.534Z,0.50
2019-03-13T03:26:45.046Z,0.30
2019-03-13T03:29:15.644Z,0.30
2019-03-13T03:31:47.354Z,0.30
2019-03-13T03:34:17.866Z,0.30
2019-03-13T03:36:48.373Z,0.30
2019-03-13T03:39:18.828Z,0.20
2019-03-13T03:41:49.311Z,0.30
2019-03-13T03:44:19.760Z,0.30
2019-03-13T03:46:50.239Z,0.40
2019-03-13T03:49:21.104Z,0.30
2019-03-13T03:51:52.627Z,0.30
2019-03-13T03:54:23.110Z,0.30
2019-03-13T03:56:53.564Z,0.20
2019-03-13T03:59:24.046Z,0.30
2019-03-13T04:01:54.521Z,0.20
2019-03-13T04:04:25.168Z,0.30
2019-03-13T04:06:55.703Z,0.30
2019-03-13T04:09:26.241Z,0.30
2019-03-13T04:11:56.750Z,0.30
2019-03-13T04:14:27.428Z,0.30
2019-03-13T04:16:57.877Z,0.23
2019-03-13T04:19:28.669Z,0.30
2019-03-13T04:21:59.238Z,0.30
2019-03-13T04:24:30.121Z,0.40
2019-03-13T04:27:00.613Z,0.30
2019-03-13T04:29:31.190Z,0.30
2019-03-13T04:32:01.968Z,0.40
2019-03-13T04:34:32.425Z,0.30
2019-03-13T04:37:02.905Z,0.33
2019-03-13T04:39:33.368Z,0.23
2019-03-13T04:42:03.864Z,0.50
2019-03-13T04:44:34.362Z,0.30
2019-03-13T04:47:04.800Z,0.30
2019-03-13T04:49:35.317Z,0.30
2019-03-13T04:52:05.769Z,0.20
2019-03-13T04:54:36.592Z,0.30
2019-03-13T04:57:07.415Z,0.30
2019-03-13T04:59:37.991Z,0.37
2019-03-13T05:02:08.724Z,0.30
2019-03-13T05:04:39.360Z,0.40
2019-03-13T05:07:10.212Z,0.20
2019-03-13T05:09:41.353Z,0.40
2019-03-13T05:12:11.880Z,0.40
2019-03-13T05:14:42.476Z,0.40
2019-03-13T05:17:12.967Z,0.30
2019-03-13T05:19:43.462Z,0.47
2019-03-13T05:22:13.972Z,0.40
2019-03-13T05:24:44.848Z,0.30
2019-03-13T05:27:15.352Z,0.40
2019-03-13T05:29:46.169Z,0.30
2019-03-13T05:32:17.017Z,0.50
2019-03-13T05:34:47.559Z,0.30
2019-03-13T05:37:18.142Z,0.30
2019-03-13T05:39:48.577Z,0.40
2019-03-13T05:42:19.040Z,0.30
2019-03-13T05:44:49.650Z,0.30
2019-03-13T05:47:20.480Z,0.30
2019-03-13T05:49:51.659Z,0.37
2019-03-13T05:52:22.106Z,0.30
2019-03-13T05:54:52.689Z,0.47
2019-03-13T05:57:23.128Z,0.50
2019-03-13T05:59:53.603Z,0.50
2019-03-13T06:02:25.592Z,0.40
2019-03-13T06:04:56.086Z,0.50
2019-03-13T06:07:26.608Z,0.50
2019-03-13T06:09:57.445Z,0.47
2019-03-13T06:19:55.637Z,0.50
2019-03-13T06:22:26.133Z,0.50
2019-03-13T06:24:56.651Z,0.50
2019-03-13T06:27:27.097Z,0.43
2019-03-13T06:29:57.616Z,0.40
2019-03-13T06:32:28.542Z,0.63
2019-03-13T06:34:59.053Z,0.47
2019-03-13T06:37:29.986Z,0.60
2019-03-13T06:40:00.485Z,0.50
2019-03-13T06:42:31.257Z,1.40
2019-03-13T06:45:01.715Z,0.63
2019-03-13T06:47:32.310Z,1.00
2019-03-13T06:50:02.772Z,0.63
2019-03-13T06:52:33.345Z,0.60
2019-03-13T06:55:04.034Z,0.50
2019-03-13T06:57:34.586Z,0.50
2019-03-13T07:00:33.216Z,0.50
2019-03-13T07:03:22.849Z,0.40
2019-03-13T07:06:12.305Z,0.70
2019-03-13T07:09:00.605Z,0.40
2019-03-13T07:11:50.286Z,0.60
2019-03-13T07:14:38.332Z,0.60
2019-03-13T07:17:32.865Z,0.50
2019-03-13T07:20:21.617Z,0.80
2019-03-13T07:23:20.288Z,0.57
2019-03-13T07:26:15.573Z,0.60
2019-03-13T07:28:56.200Z,0.50
2019-03-13T07:31:44.914Z,0.50
2019-03-13T07:34:43.548Z,0.53
2019-03-13T07:37:30.969Z,0.50
2019-03-13T07:40:25.579Z,0.60
2019-03-13T07:43:24.310Z,0.77
2019-03-13T07:46:12.768Z,0.70
2019-03-13T07:49:01.221Z,0.70
2019-03-13T07:51:50.742Z,0.50
2019-03-13T07:54:47.038Z,0.60
2019-03-13T07:57:22.973Z,0.60
2019-03-13T08:00:05.689Z,0.70
2019-03-13T08:02:55.417Z,0.70
2019-03-13T08:05:45.412Z,0.60
2019-03-13T08:08:33.407Z,0.60
2019-03-13T08:11:20.051Z,0.43
2019-03-13T08:14:09.778Z,0.53
2019-03-13T08:16:57.977Z,0.63
2019-03-13T08:19:41.338Z,0.50
2019-03-13T08:22:49.927Z,0.50
2019-03-13T08:25:46.274Z,0.60
2019-03-13T08:28:32.631Z,0.90
2019-03-13T08:31:14.173Z,0.70
2019-03-13T08:34:06.361Z,0.83
2019-03-13T08:36:52.805Z,0.60
2019-03-13T08:39:48.489Z,0.50
2019-03-13T08:42:44.197Z,0.60
2019-03-13T08:45:32.089Z,0.87
2019-03-13T08:48:27.623Z,0.67
2019-03-13T08:51:32.128Z,0.90
2019-03-13T08:54:39.409Z,0.90
2019-03-13T08:57:32.100Z,0.60
2019-03-13T09:00:20.100Z,0.60
2019-03-13T09:02:56.180Z,0.80
2019-03-13T09:05:48.604Z,0.60
2019-03-13T09:08:47.330Z,0.90
2019-03-13T09:11:37.162Z,0.90
2019-03-13T09:14:18.657Z,0.53
2019-03-13T09:17:06.784Z,0.80
2019-03-13T09:19:45.334Z,0.70
2019-03-13T09:22:34.823Z,0.70
2019-03-13T09:25:40.127Z,1.40
2019-03-13T09:28:24.218Z,1.00
2019-03-13T09:31:06.046Z,0.90
2019-03-13T09:34:04.562Z,0.70
2019-03-13T09:36:47.340Z,1.03
2019-03-13T09:39:35.669Z,0.70
2019-03-13T09:42:23.839Z,0.70
2019-03-13T09:45:25.205Z,0.97
2019-03-13T09:48:10.982Z,0.80
2019-03-13T09:50:48.960Z,0.90
2019-03-13T09:53:30.982Z,0.80
2019-03-13T09:56:20.465Z,0.80
2019-03-13T09:59:08.655Z,0.90
2019-03-13T10:01:58.141Z,0.97
2019-03-13T10:04:41.861Z,1.00
2019-03-13T10:07:30.123Z,0.90
2019-03-13T10:10:22.724Z,1.00
2019-03-13T10:13:10.326Z,0.70
2019-03-13T10:15:58.321Z,0.80
2019-03-13T10:18:58.185Z,0.77
2019-03-13T10:21:38.108Z,1.07
2019-03-13T10:24:22.461Z,0.83
2019-03-13T10:27:00.409Z,1.00
2019-03-13T10:29:50.023Z,1.20
2019-03-13T10:32:29.993Z,1.07
2019-03-13T10:35:19.653Z,0.70
2019-03-13T10:38:13.762Z,1.00
2019-03-13T10:41:02.025Z,1.00
2019-03-13T10:44:10.005Z,0.83
2019-03-13T10:46:50.900Z,1.07
2019-03-13T10:49:28.581Z,1.20
2019-03-13T10:52:33.207Z,0.80
2019-03-13T10:55:19.605Z,1.30
2019-03-13T10:58:09.952Z,1.40
2019-03-13T11:00:52.935Z,1.23
2019-03-13T11:03:33.677Z,0.90
2019-03-13T11:06:22.089Z,1.17
2019-03-13T11:09:10.437Z,1.20
2019-03-13T11:12:06.185Z,0.90
2019-03-13T11:14:58.710Z,0.97
2019-03-13T11:18:00.395Z,1.03
2019-03-13T11:20:55.114Z,1.07
2019-03-13T11:23:34.753Z,1.07
2019-03-13T11:26:27.173Z,1.27
2019-03-13T11:29:19.770Z,1.00
2019-03-13T11:31:58.442Z,1.00
2019-03-13T11:34:36.383Z,0.80
2019-03-13T11:37:28.882Z,1.00
2019-03-13T11:40:12.748Z,0.80
2019-03-13T11:42:53.093Z,1.00
2019-03-13T11:45:32.394Z,1.40
2019-03-13T11:48:15.334Z,1.23
2019-03-13T11:50:57.930Z,1.00
2019-03-13T11:53:46.065Z,0.80
2019-03-13T11:56:39.210Z,0.77
2019-03-13T11:59:31.385Z,1.20
2019-03-13T12:02:27.029Z,1.30
2019-03-13T12:05:19.605Z,0.90
2019-03-13T12:08:14.934Z,1.00
2019-03-13T12:11:01.256Z,0.80
2019-03-13T12:13:53.086Z,0.80
2019-03-13T12:16:42.816Z,1.23
2019-03-13T12:19:19.289Z,1.17
2019-03-13T12:22:14.938Z,1.20
2019-03-13T12:24:56.928Z,1.43
2019-03-13T12:27:49.493Z,1.33
2019-03-13T12:30:39.067Z,1.30
2019-03-13T12:33:27.409Z,1.00
2019-03-13T12:36:15.972Z,1.27
2019-03-13T12:39:05.584Z,1.67
2019-03-13T12:41:57.781Z,1.40
2019-03-13T12:44:34.758Z,1.67
2019-03-13T12:47:36.221Z,1.50
2019-03-13T12:50:20.378Z,1.17
2019-03-13T12:53:08.357Z,1.70
2019-03-13T12:55:57.010Z,1.40
2019-03-13T12:58:45.350Z,1.27
2019-03-13T13:01:25.146Z,1.30
2019-03-13T13:04:26.791Z,1.60
2019-03-13T13:07:19.336Z,1.40
2019-03-13T13:10:07.770Z,1.50
2019-03-13T13:12:58.005Z,1.50
2019-03-13T13:15:47.974Z,1.70
2019-03-13T13:18:33.085Z,1.57
2019-03-13T13:21:03.522Z,1.30
2019-03-13T13:23:34.066Z,1.80
2019-03-13T13:26:04.524Z,1.13
2019-03-13T13:28:35.056Z,1.40
2019-03-13T13:31:05.637Z,1.20
2019-03-13T13:33:36.197Z,1.00
2019-03-13T13:36:06.950Z,1.00
2019-03-13T13:38:37.477Z,0.93
2019-03-13T13:41:08.010Z,1.30
2019-03-13T13:43:38.481Z,1.00
2019-03-13T13:46:24.073Z,1.30
2019-03-13T13:48:54.518Z,0.90
2019-03-13T13:51:24.958Z,1.27
2019-03-13T13:53:56.393Z,1.00
2019-03-13T13:56:26.937Z,1.23
2019-03-13T13:58:58.446Z,1.13
2019-03-13T14:01:28.925Z,1.27
2019-03-13T14:03:59.412Z,1.30
2019-03-13T14:06:30.280Z,1.17
2019-03-13T14:09:00.709Z,1.30
2019-03-13T14:11:32.979Z,1.40
2019-03-13T14:14:03.890Z,1.10
2019-03-13T14:16:34.707Z,1.23
2019-03-13T14:19:05.233Z,1.17
2019-03-13T14:21:35.690Z,1.67
2019-03-13T14:24:06.186Z,0.97
2019-03-13T14:26:36.945Z,0.90
2019-03-13T14:29:07.426Z,1.10
2019-03-13T14:31:37.871Z,0.80
2019-03-13T14:34:09.405Z,1.07
2019-03-13T14:36:39.872Z,0.83
2019-03-13T14:39:10.425Z,0.80
2019-03-13T14:41:41.006Z,0.93
2019-03-13T14:44:11.893Z,0.90
2019-03-13T14:46:42.682Z,0.93
2019-03-13T14:49:13.154Z,1.07
2019-03-13T14:51:43.670Z,1.00
2019-03-13T14:54:14.169Z,0.87
2019-03-13T14:56:45.386Z,1.03
2019-03-13T14:59:15.971Z,1.40
2019-03-13T15:01:46.710Z,1.03
2019-03-13T15:04:17.204Z,1.00
2019-03-13T15:06:47.665Z,1.10
2019-03-13T15:09:18.144Z,0.70
2019-03-13T15:11:48.605Z,0.87
2019-03-13T15:14:19.329Z,0.80
2019-03-13T15:16:52.182Z,0.80
2019-03-13T15:19:22.320Z,1.00
2019-03-13T15:21:52.868Z,0.50
2019-03-13T15:24:24.343Z,0.77
2019-03-13T15:26:55.870Z,0.70
2019-03-13T15:29:26.468Z,0.90
2019-03-13T15:31:57.033Z,0.60
2019-03-13T15:34:27.624Z,0.80
2019-03-13T15:36:58.112Z,0.60
2019-03-13T15:39:28.969Z,0.87
2019-03-13T15:41:59.422Z,0.90
2019-03-13T15:44:29.980Z,0.80
2019-03-13T15:47:00.417Z,0.90
2019-03-13T15:49:31.104Z,0.87
2019-03-13T15:52:01.841Z,0.90
2019-03-13T15:54:32.489Z,0.90
2019-03-13T15:57:03.009Z,0.80
2019-03-13T15:59:33.578Z,0.80
2019-03-13T16:02:04.208Z,0.80
2019-03-13T16:04:34.713Z,0.80
2019-03-13T16:07:05.446Z,1.00
2019-03-13T16:09:35.889Z,0.80
2019-03-13T16:12:06.774Z,0.77
2019-03-13T16:14:37.368Z,1.07
2019-03-13T16:17:07.955Z,1.53
2019-03-13T16:19:38.455Z,0.97
2019-03-13T16:22:10.935Z,1.40
2019-03-13T16:24:41.385Z,1.40
2019-03-13T16:27:11.888Z,1.20
2019-03-13T16:29:43.606Z,1.37
2019-03-13T16:32:16.119Z,1.20
2019-03-13T16:34:46.615Z,0.93
2019-03-13T16:37:17.070Z,1.00
2019-03-13T16:39:47.865Z,1.00
2019-03-13T16:42:18.301Z,1.30
2019-03-13T16:44:48.784Z,1.10
2019-03-13T16:47:19.291Z,1.33
2019-03-13T16:49:49.850Z,1.30
2019-03-13T16:52:20.312Z,1.47
2019-03-13T16:54:51.131Z,1.30
2019-03-13T16:57:21.578Z,1.23
2019-03-13T17:00:00.411Z,1.60
2019-03-13T17:02:24.315Z,1.33
2019-03-13T17:04:55.129Z,1.00
2019-03-13T17:07:25.652Z,1.33
2019-03-13T17:09:56.122Z,1.00
2019-03-13T17:12:26.680Z,1.03
2019-03-13T17:14:57.195Z,1.30
2019-03-13T17:17:27.729Z,1.17
2019-03-13T17:19:58.295Z,1.00
2019-03-13T17:22:28.798Z,1.23
2019-03-13T17:24:59.290Z,0.90
2019-03-13T17:27:29.773Z,1.23
2019-03-13T17:30:00.376Z,1.07
2019-03-13T17:32:32.158Z,1.13
2019-03-13T17:35:02.760Z,0.90
2019-03-13T17:37:33.484Z,0.90
2019-03-13T17:40:04.635Z,1.17
2019-03-13T17:42:35.396Z,1.20
2019-03-13T17:45:06.565Z,1.30
2019-03-13T17:47:37.021Z,1.20
2019-03-13T17:50:07.896Z,1.30
2019-03-13T17:52:38.650Z,1.10
2019-03-13T17:55:09.910Z,1.57
2019-03-13T17:57:40.435Z,1.20
2019-03-13T18:00:17.870Z,1.10
2019-03-13T18:02:48.652Z,1.20
2019-03-13T18:05:19.284Z,1.10
2019-03-13T18:07:49.738Z,1.00
2019-03-13T18:10:20.428Z,1.87
2019-03-13T18:12:50.888Z,1.00
2019-03-13T18:15:21.515Z,1.13
2019-03-13T18:17:52.030Z,1.10
2019-03-13T18:20:22.489Z,0.90
2019-03-13T18:22:54.221Z,1.03
2019-03-13T18:25:24.813Z,1.00
2019-03-13T18:27:55.262Z,0.80
2019-03-13T18:30:25.929Z,0.80
2019-03-13T18:32:56.575Z,0.70
2019-03-13T18:35:28.905Z,1.03
2019-03-13T18:37:59.396Z,1.10
2019-03-13T18:40:29.847Z,1.03
2019-03-13T18:43:00.313Z,0.90
2019-03-13T18:45:30.865Z,0.90
2019-03-13T18:48:01.938Z,1.43
2019-03-13T18:50:32.792Z,1.40
2019-03-13T18:53:03.305Z,1.37
2019-03-13T18:55:33.934Z,1.73
2019-03-13T18:58:04.507Z,1.13
2019-03-13T19:00:36.161Z,1.50
2019-03-13T19:03:07.270Z,1.37
2019-03-13T19:05:38.009Z,1.53
2019-03-13T19:08:08.608Z,1.40
2019-03-13T19:10:39.352Z,1.03
2019-03-13T19:13:09.888Z,0.90
2019-03-13T19:15:40.689Z,0.97
2019-03-13T19:18:12.499Z,1.17
2019-03-13T19:20:43.007Z,1.10
2019-03-13T19:23:14.433Z,1.20
2019-03-13T19:25:45.201Z,1.37
2019-03-13T19:28:16.413Z,1.10
2019-03-13T19:30:47.668Z,1.10
2019-03-13T19:33:18.228Z,1.00
2019-03-13T19:35:48.744Z,1.30
2019-03-13T19:38:19.589Z,1.43
2019-03-13T19:40:51.155Z,1.30
2019-03-13T19:43:22.761Z,1.33
2019-03-13T19:45:53.389Z,1.20
2019-03-13T19:48:24.000Z,1.00
2019-03-13T19:50:56.612Z,1.30
2019-03-13T19:53:27.768Z,1.17
2019-03-13T19:55:58.257Z,1.40
2019-03-13T19:58:29.037Z,1.03
2019-03-13T20:03:29.010Z,1.17
2019-03-13T20:06:11.369Z,1.10
2019-03-13T20:08:42.123Z,1.30
2019-03-13T20:11:12.630Z,1.40
2019-03-13T20:13:43.354Z,1.20
2019-03-13T20:16:13.814Z,1.07
2019-03-13T20:18:44.493Z,1.70
2019-03-13T20:21:15.051Z,1.20
2019-03-13T20:23:46.502Z,1.50
2019-03-13T20:26:18.584Z,1.00
2019-03-13T20:28:49.162Z,1.40
2019-03-13T20:31:19.789Z,1.60
2019-03-13T20:33:50.377Z,1.10
2019-03-13T20:36:20.828Z,1.60
2019-03-13T20:38:51.328Z,1.70
2019-03-13T20:41:21.940Z,1.37
2019-03-13T20:43:52.417Z,1.30
2019-03-13T20:46:22.951Z,1.52
2019-03-13T20:48:53.551Z,1.80
2019-03-13T20:51:24.044Z,1.70
2019-03-13T20:53:54.622Z,2.17
2019-03-13T20:56:25.558Z,2.10
2019-03-13T20:58:56.023Z,2.10
2019-03-13T21:01:26.776Z,1.85
2019-03-13T21:03:57.361Z,1.90
2019-03-13T21:06:27.967Z,1.82
2019-03-13T21:08:58.558Z,1.90
2019-03-13T21:11:29.064Z,1.98
2019-03-13T21:13:59.735Z,2.10
2019-03-13T21:16:30.693Z,2.00
2019-03-13T21:19:02.246Z,2.30
2019-03-13T21:21:32.743Z,1.80
2019-03-13T21:24:03.606Z,2.33
2019-03-13T21:26:34.169Z,1.90
2019-03-13T21:29:16.473Z,2.23
2019-03-13T21:31:47.036Z,2.20
2019-03-13T21:34:18.585Z,2.30
2019-03-13T21:36:49.077Z,2.33
2019-03-13T21:39:19.533Z,2.42
2019-03-13T21:41:50.218Z,2.40
2019-03-13T21:44:20.984Z,2.77
2019-03-13T21:46:52.537Z,2.50
2019-03-13T21:49:23.158Z,2.50
2019-03-13T21:51:53.645Z,2.27
2019-03-13T21:54:24.142Z,2.00
2019-03-13T21:56:54.744Z,2.10
2019-03-13T21:59:25.349Z,2.20
2019-03-13T22:01:55.845Z,2.10
2019-03-13T22:04:26.392Z,2.40
2019-03-13T22:06:57.934Z,2.45
2019-03-13T22:09:28.408Z,2.22
2019-03-13T22:11:58.916Z,2.30
2019-03-13T22:14:29.443Z,2.20
2019-03-13T22:16:59.943Z,2.27
2019-03-13T22:19:30.374Z,2.37
2019-03-13T22:22:00.825Z,2.00
2019-03-13T22:24:31.262Z,2.10
2019-03-13T22:27:01.965Z,1.70
2019-03-13T22:29:32.497Z,1.80
2019-03-13T22:32:03.034Z,1.80
2019-03-13T22:34:33.845Z,1.75
2019-03-13T22:37:04.310Z,1.80
2019-03-13T22:39:35.030Z,1.60
2019-03-13T22:42:06.073Z,1.70
2019-03-13T22:44:36.862Z,1.80
2019-03-13T22:47:07.341Z,1.60
2019-03-13T22:49:37.823Z,1.62
2019-03-13T22:52:08.277Z,1.50
2019-03-13T22:54:38.826Z,1.20
2019-03-13T22:57:09.625Z,1.32
2019-03-13T22:59:40.367Z,1.40
2019-03-13T23:02:11.549Z,1.17
2019-03-13T23:04:42.158Z,1.42
2019-03-13T23:07:12.680Z,1.40
2019-03-13T23:09:43.266Z,1.47
2019-03-13T23:12:13.809Z,1.40
2019-03-13T23:14:44.269Z,1.40
2019-03-13T23:17:15.139Z,1.37
2019-03-13T23:19:46.128Z,1.50
2019-03-13T23:22:16.974Z,1.50
2019-03-13T23:24:47.885Z,1.40
2019-03-13T23:27:18.372Z,1.50
2019-03-13T23:29:49.072Z,1.53
2019-03-13T23:32:19.963Z,1.50
2019-03-13T23:34:50.407Z,1.42
2019-03-13T23:37:20.945Z,1.60
2019-03-13T23:39:51.789Z,1.57
2019-03-13T23:42:22.313Z,1.60
2019-03-13T23:44:54.814Z,1.72
2019-03-13T23:47:24.997Z,1.55
2019-03-13T23:49:55.515Z,1.82
2019-03-13T23:52:26.089Z,1.75
2019-03-13T23:54:56.856Z,1.75
2019-03-13T23:57:27.304Z,1.70
2019-03-13T23:59:57.764Z,2.12
